Terminal Aerodrome Forecast
Issued by NWS

Home | Current Version | Previous Version | Text Only | Print | Product List | Glossary On
Versions: 1 2 3 4 5 6 7 8 9 10 11 12 13 14
000
FTUS43 KICT 170500
TAFSLN
TAF
KSLN 170522Z 1706/1806 01010KT P6SM OVC110
     FM171200 04009KT P6SM OVC090
     FM172300 11006KT P6SM SCT100=

USA.gov is the U.S. government's official web portal to all federal, state and local government web resources and services.